Swords, Ireland
Current Conditions -  °F | °C
As of 12:30 AM on Tuesday 21 Oct 2014 (Local Time) from EIDW Reporting Station
Rain Showers Rain Showers  
Wind Chill: 13°   Ceiling: 2200
Heat Index: 13°   Visibility: 6mi
Dew Point: 11°   Wind: 24mph
Humidity: 88%   Direction: 220°SW
Pressure: 29.38"   Gusts: NA
Location:  53.45°N, 6.22°W
Report Text: EIDW 210030Z 22021KT 190V250 9999 -SHRA SCT018 BKN022 13/11 Q0995 TEMPO 5000 BKN010
Loading
Personal Weather Stations






























Interactive Weather Map
Tropical Storm Tracking
New forecast layout! Learn more

10-Day Weather Forecast

Advertisements
Track Severe Weather on mobile